Time;durP1;ratioP1;P1;durP2;ratioP2;P2;SDS_P1;SDS_P2;PMS_P1;PMS_P2;Temp;Humidity;BMP_temperature;BMP_pressure;BME280_temperature;BME280_humidity;BME280_pressure;Samples;Min_cycle;Max_cycle;Signal;HPM_P1;HPM_P2
2023/01/19 00:01:27;;;;;;;20.43;11.77;;;;;;;-3.52;100.00;95111.22;5056590;28;20047;-85
2023/01/19 00:03:53;;;;;;;20.60;10.63;;;;;;;-3.55;100.00;95112.25;5024778;28;20456;-86
2023/01/19 00:06:19;;;;;;;17.70;11.30;;;;;;;-3.60;100.00;95107.41;5027144;28;20463;-86
2023/01/19 00:08:47;;;;;;;16.60;10.07;;;;;;;-3.61;100.00;95103.19;5024982;28;20035;-86
2023/01/19 00:11:13;;;;;;;20.20;10.50;;;;;;;-3.66;100.00;95104.41;5039259;28;20507;-86
2023/01/19 00:13:39;;;;;;;23.70;11.60;;;;;;;-3.66;100.00;95109.56;5042077;28;20507;-85
2023/01/19 00:16:06;;;;;;;18.97;10.17;;;;;;;-3.70;100.00;95116.63;5029945;28;20029;-86
2023/01/19 00:18:32;;;;;;;18.10;9.77;;;;;;;-3.67;100.00;95115.63;5028666;28;20479;-85
2023/01/19 00:20:58;;;;;;;16.97;10.60;;;;;;;-3.69;100.00;95125.16;5025764;28;20466;-85
2023/01/19 00:23:24;;;;;;;17.83;11.10;;;;;;;-3.76;100.00;95118.78;5037955;28;20467;-85
2023/01/19 00:25:50;;;;;;;17.23;10.33;;;;;;;-3.75;100.00;95121.28;4977392;28;20042;-85
2023/01/19 00:28:17;;;;;;;19.30;10.20;;;;;;;-3.77;100.00;95124.84;4990457;28;20068;-86
2023/01/19 00:30:43;;;;;;;18.13;10.77;;;;;;;-3.81;100.00;95129.38;4991238;28;20482;-85
2023/01/19 00:33:13;;;;;;;19.83;11.67;;;;;;;-3.81;100.00;95131.94;4992610;28;20730;-86
2023/01/19 00:35:41;;;;;;;23.67;12.90;;;;;;;-3.86;100.00;95131.41;4977484;28;21019;-85
2023/01/19 00:38:07;;;;;;;21.40;11.47;;;;;;;-3.78;100.00;95128.34;4975585;28;20474;-85
2023/01/19 00:40:33;;;;;;;18.90;10.83;;;;;;;-3.79;100.00;95130.06;4984450;28;20463;-85
2023/01/19 00:42:59;;;;;;;19.93;11.60;;;;;;;-3.71;100.00;95139.88;4973810;28;20471;-86
2023/01/19 00:45:25;;;;;;;20.40;11.77;;;;;;;-3.71;100.00;95137.31;4974708;28;20034;-85
2023/01/19 00:47:55;;;;;;;20.70;11.40;;;;;;;-3.77;100.00;95148.78;4983425;28;20636;-85
2023/01/19 00:50:27;;;;;;;19.87;11.63;;;;;;;-3.86;100.00;95145.06;4973412;28;20482;-86
2023/01/19 00:52:54;;;;;;;22.47;13.40;;;;;;;-3.78;100.00;95148.91;4976968;28;20562;-85
2023/01/19 00:55:21;;;;;;;20.87;10.93;;;;;;;-3.87;100.00;95153.69;5025905;28;20534;-85
2023/01/19 00:57:47;;;;;;;21.80;10.97;;;;;;;-3.85;100.00;95158.75;5020895;28;20452;-86
2023/01/19 01:00:18;;;;;;;23.37;12.60;;;;;;;-3.88;100.00;95153.81;5019758;28;20467;-86
2023/01/19 01:02:44;;;;;;;19.97;11.30;;;;;;;-3.92;100.00;95152.38;5021147;28;20455;-85
2023/01/19 01:05:11;;;;;;;19.93;11.70;;;;;;;-3.90;100.00;95150.50;5022710;28;20469;-85
2023/01/19 01:07:43;;;;;;;19.47;11.33;;;;;;;-3.96;100.00;95161.16;5037594;28;20470;-86
2023/01/19 01:10:15;;;;;;;23.17;12.47;;;;;;;-3.90;100.00;95165.91;5034576;28;20488;-85
2023/01/19 01:12:42;;;;;;;18.50;11.63;;;;;;;-3.84;100.00;95160.38;5037319;28;20474;-85
2023/01/19 01:15:10;;;;;;;16.90;11.40;;;;;;;-3.89;100.00;95164.97;5037896;28;20033;-85
2023/01/19 01:17:46;;;;;;;22.43;10.97;;;;;;;-3.93;100.00;95166.09;5027517;28;20460;-86
2023/01/19 01:20:21;;;;;;;19.20;10.87;;;;;;;-4.04;100.00;95159.09;5029608;28;20486;-86
2023/01/19 01:22:50;;;;;;;18.83;11.63;;;;;;;-3.99;100.00;95162.19;5024628;28;20889;-86
2023/01/19 01:25:18;;;;;;;19.90;12.00;;;;;;;-3.96;100.00;95163.72;4989551;28;21010;-86
2023/01/19 01:27:44;;;;;;;19.27;10.93;;;;;;;-4.01;100.00;95158.91;4988625;28;20467;-85
2023/01/19 01:30:12;;;;;;;16.83;10.63;;;;;;;-4.01;100.00;95158.06;4973441;28;20547;-84
2023/01/19 01:32:38;;;;;;;18.67;11.80;;;;;;;-4.01;100.00;95152.94;4974985;28;20467;-85
2023/01/19 01:35:04;;;;;;;19.53;12.10;;;;;;;-4.09;100.00;95154.25;4971021;28;21029;-85
2023/01/19 01:37:30;;;;;;;20.17;11.03;;;;;;;-4.05;100.00;95163.41;4976128;28;20349;-84
2023/01/19 01:39:56;;;;;;;18.77;12.17;;;;;;;-4.06;100.00;95159.19;4975093;28;22376;-85
2023/01/19 01:42:28;;;;;;;25.17;12.53;;;;;;;-4.11;100.00;95162.97;4991724;28;20033;-86
2023/01/19 01:45:06;;;;;;;19.40;12.47;;;;;;;-4.11;100.00;95166.34;4990008;28;20048;-85
2023/01/19 01:47:47;;;;;;;18.53;11.30;;;;;;;-4.10;100.00;95159.47;4988116;28;20506;-85
2023/01/19 01:50:27;;;;;;;21.27;11.53;;;;;;;-4.06;100.00;95166.91;4979556;28;20498;-86
2023/01/19 01:53:13;;;;;;;22.37;11.90;;;;;;;-4.16;100.00;95168.38;4974697;28;21051;-85
2023/01/19 01:55:46;;;;;;;21.87;12.23;;;;;;;-4.10;100.00;95178.25;5011504;28;21009;-86
2023/01/19 01:58:15;;;;;;;21.80;12.87;;;;;;;-4.05;100.00;95172.84;5018763;28;20476;-86
2023/01/19 02:03:25;;;;;;;20.43;12.10;;;;;;;-4.19;100.00;95176.28;5036858;28;21008;-86
2023/01/19 02:05:58;;;;;;;23.27;13.10;;;;;;;-4.24;100.00;95178.31;5023681;28;20468;-86
2023/01/19 02:14:21;;;;;;;21.03;12.07;;;;;;;-4.28;100.00;95184.56;5038766;28;20472;-86
2023/01/19 02:16:47;;;;;;;17.53;11.30;;;;;;;-4.34;100.00;95179.78;5039692;28;20553;-86
2023/01/19 02:19:23;;;;;;;19.80;12.53;;;;;;;-4.34;100.00;95179.78;5038958;28;20091;-86
2023/01/19 02:22:16;;;;;;;22.50;14.03;;;;;;;-4.26;100.00;95180.13;5022125;28;20025;-86
2023/01/19 02:24:42;;;;;;;15.55;9.30;;;;;;;-4.34;100.00;95187.50;5014595;28;21114;-86
2023/01/19 02:27:10;;;;;;;18.13;11.00;;;;;;;-4.34;100.00;95187.50;4978819;28;20048;-86
2023/01/19 02:29:37;;;;;;;20.07;11.20;;;;;;;-4.20;100.00;95191.78;4981752;28;20459;-86
2023/01/19 02:32:04;;;;;;;21.87;12.03;;;;;;;-4.30;100.00;95196.66;5003252;28;20494;-85
2023/01/19 02:34:31;;;;;;;23.30;12.30;;;;;;;-4.30;100.00;95205.16;5001067;28;20475;-85
2023/01/19 02:36:57;;;;;;;19.23;12.00;;;;;;;-4.29;100.00;95206.03;4987267;28;20465;-86
2023/01/19 02:39:32;;;;;;;20.47;12.47;;;;;;;-4.30;100.00;95201.78;4978681;28;22534;-85
2023/01/19 02:42:03;;;;;;;18.97;11.40;;;;;;;-4.23;100.00;95200.47;4992530;28;20505;-85
2023/01/19 02:44:30;;;;;;;20.70;13.07;;;;;;;-4.35;100.00;95196.13;4973867;28;20472;-86
2023/01/19 02:46:56;;;;;;;19.83;11.77;;;;;;;-4.23;100.00;95199.66;4974516;28;20985;-85
2023/01/19 02:49:26;;;;;;;20.53;12.10;;;;;;;-4.13;100.00;95203.31;5001489;28;20574;-85
2023/01/19 02:51:52;;;;;;;21.63;12.40;;;;;;;-4.21;100.00;95208.94;4973964;28;20535;-84
2023/01/19 02:54:54;;;;;;;20.43;11.53;;;;;;;-4.21;100.00;95203.78;4982193;28;20447;-85
2023/01/19 02:57:35;;;;;;;24.60;12.57;;;;;;;-4.33;100.00;95201.97;5038373;28;20033;-85
2023/01/19 03:00:27;;;;;;;20.47;12.07;;;;;;;-4.41;100.00;95199.06;5023788;28;20617;-86
2023/01/19 03:03:20;;;;;;;19.30;11.43;;;;;;;-4.46;100.00;95188.25;5023376;28;20459;-85
2023/01/19 03:06:11;;;;;;;20.02;11.90;;;;;;;-4.45;100.00;95195.03;5027194;28;20541;-84
2023/01/19 03:09:03;;;;;;;22.13;12.00;;;;;;;-4.37;100.00;95196.19;5026689;28;20514;-85
2023/01/19 03:11:36;;;;;;;22.07;12.57;;;;;;;-4.34;100.00;95197.75;5028583;28;21012;-85
2023/01/19 03:14:11;;;;;;;18.65;11.75;;;;;;;-4.33;100.00;95202.78;5043419;28;20504;-86
2023/01/19 03:16:47;;;;;;;23.17;12.77;;;;;;;-4.38;100.00;95204.00;5029038;28;20029;-86
2023/01/19 03:19:32;;;;;;;21.97;12.73;;;;;;;-4.42;100.00;95194.84;5044897;28;20463;-86
2023/01/19 03:22:03;;;;;;;19.60;11.27;;;;;;;-4.47;100.00;95207.13;5055058;28;20463;-85
2023/01/19 03:24:33;;;;;;;20.67;10.67;;;;;;;-4.48;100.00;95208.06;5030937;28;20460;-85
2023/01/19 03:27:04;;;;;;;19.67;11.90;;;;;;;-4.45;100.00;95207.88;5011571;28;20489;-85
2023/01/19 03:29:33;;;;;;;17.93;10.83;;;;;;;-4.41;100.00;95211.91;5011823;28;20444;-85
2023/01/19 03:32:05;;;;;;;20.20;11.90;;;;;;;-4.37;100.00;95215.91;5011593;28;20521;-86
2023/01/19 03:34:33;;;;;;;22.23;12.23;;;;;;;-4.33;100.00;95219.94;5008925;28;20463;-85
2023/01/19 03:37:03;;;;;;;20.13;11.97;;;;;;;-4.22;100.00;95220.13;4975242;28;21235;-85
2023/01/19 03:39:30;;;;;;;19.67;12.07;;;;;;;-4.23;100.00;95218.44;4961458;28;20462;-86
2023/01/19 03:42:04;;;;;;;19.80;12.33;;;;;;;-4.12;100.00;95215.25;4968575;28;20455;-85
2023/01/19 03:44:33;;;;;;;20.20;11.77;;;;;;;-4.05;100.00;95214.75;4962582;28;20498;-86
2023/01/19 03:47:00;;;;;;;21.30;11.57;;;;;;;-4.06;100.00;95217.41;4977094;28;20456;-85
2023/01/19 03:49:26;;;;;;;19.90;11.40;;;;;;;-4.07;100.00;95220.91;4958377;28;20467;-85
2023/01/19 03:51:55;;;;;;;24.40;12.37;;;;;;;-4.03;100.00;95217.22;4984570;28;20475;-85
2023/01/19 03:54:21;;;;;;;20.23;12.57;;;;;;;-3.99;100.00;95222.97;4975954;28;20472;-86
2023/01/19 03:56:46;;;;;;;21.70;10.27;;;;;;;-4.05;100.00;95219.91;4997879;28;20611;-85
2023/01/19 03:59:18;;;;;;;18.57;10.10;;;;;;;-3.94;100.00;95215.81;5007197;28;20731;-85
2023/01/19 04:01:45;;;;;;;18.43;11.97;;;;;;;-3.85;100.00;95215.25;4994634;28;20033;-85
2023/01/19 04:04:12;;;;;;;19.87;11.87;;;;;;;-3.89;100.00;95211.22;5008793;28;20481;-86
2023/01/19 04:06:38;;;;;;;21.27;11.70;;;;;;;-3.92;100.00;95214.00;5040140;28;20471;-85
2023/01/19 04:09:04;;;;;;;18.13;10.93;;;;;;;-3.98;100.00;95219.50;5023823;28;20494;-85
2023/01/19 04:11:30;;;;;;;17.77;11.00;;;;;;;-4.12;100.00;95222.94;5039267;28;20459;-85
2023/01/19 04:13:55;;;;;;;18.00;10.40;;;;;;;-4.22;100.00;95222.69;5037009;28;20591;-85
2023/01/19 04:16:22;;;;;;;18.20;10.53;;;;;;;-4.22;100.00;95221.88;5021534;28;20052;-85
2023/01/19 04:18:49;;;;;;;17.53;10.37;;;;;;;-4.30;100.00;95222.31;5022943;28;20029;-86
2023/01/19 04:21:25;;;;;;;22.47;10.70;;;;;;;-4.29;100.00;95229.13;5022678;28;21918;-86
2023/01/19 04:23:52;;;;;;;20.50;11.07;;;;;;;-4.31;100.00;95229.19;5039243;28;20605;-86
2023/01/19 04:26:17;;;;;;;20.07;11.83;;;;;;;-4.39;100.00;95234.00;4987897;28;20459;-86
2023/01/19 04:28:43;;;;;;;17.77;10.50;;;;;;;-4.46;100.00;95224.16;5006453;28;21066;-86
2023/01/19 04:31:09;;;;;;;17.77;11.27;;;;;;;-4.47;100.00;95227.66;5006666;28;20061;-85
2023/01/19 04:33:34;;;;;;;24.43;11.77;;;;;;;-4.48;100.00;95226.03;4992402;28;20036;-85
2023/01/19 04:36:02;;;;;;;22.47;13.63;;;;;;;-4.55;100.00;95226.38;5000771;28;20029;-85
2023/01/19 04:38:28;;;;;;;18.10;12.17;;;;;;;-4.59;100.00;95218.97;4991574;28;21245;-85
2023/01/19 04:40:54;;;;;;;21.90;12.43;;;;;;;-4.48;100.00;95224.28;5003097;28;20494;-85
2023/01/19 04:43:21;;;;;;;20.00;11.53;;;;;;;-4.50;100.00;95221.78;4987421;28;20021;-85
2023/01/19 04:45:48;;;;;;;19.07;11.30;;;;;;;-4.51;100.00;95216.75;4985652;28;20459;-85
2023/01/19 04:48:15;;;;;;;19.63;12.33;;;;;;;-4.55;100.00;95221.25;5012297;28;20470;-85
2023/01/19 04:50:40;;;;;;;18.13;10.97;;;;;;;-4.62;100.00;95225.09;4986632;28;20459;-86
2023/01/19 04:53:07;;;;;;;20.17;11.57;;;;;;;-4.63;100.00;95220.88;4991005;28;20555;-85
2023/01/19 04:55:33;;;;;;;20.40;11.87;;;;;;;-4.65;100.00;95217.59;5027235;28;20126;-85
2023/01/19 04:57:59;;;;;;;20.23;11.63;;;;;;;-4.65;100.00;95219.34;5045285;28;20464;-86
2023/01/19 05:00:25;;;;;;;23.30;13.83;;;;;;;-4.64;100.00;95229.50;5042471;28;20464;-85
2023/01/19 05:02:55;;;;;;;24.10;13.30;;;;;;;-4.70;100.00;95224.72;5020191;28;20395;-85
2023/01/19 05:05:21;;;;;;;25.20;13.63;;;;;;;-4.71;100.00;95235.91;5037437;28;20483;-85
2023/01/19 05:07:46;;;;;;;21.50;13.63;;;;;;;-4.72;100.00;95236.00;5024373;28;20472;-85
2023/01/19 05:10:15;;;;;;;25.77;15.63;;;;;;;-4.70;100.00;95245.25;5024926;28;21345;-85
2023/01/19 05:12:41;;;;;;;21.53;12.80;;;;;;;-4.64;100.00;95244.06;5037200;28;20025;-85
2023/01/19 05:15:08;;;;;;;22.90;13.17;;;;;;;-4.64;100.00;95241.50;5028886;28;20475;-85
2023/01/19 05:17:34;;;;;;;20.87;12.57;;;;;;;-4.65;100.00;95242.44;5039478;28;20856;-86
2023/01/19 05:20:00;;;;;;;21.10;12.13;;;;;;;-4.68;100.00;95237.47;5037779;28;20551;-84
2023/01/19 05:22:26;;;;;;;22.10;13.40;;;;;;;-4.68;100.00;95240.88;5039527;28;20468;-86
2023/01/19 05:24:52;;;;;;;18.77;12.43;;;;;;;-4.78;100.00;95250.84;5017580;28;20479;-85
2023/01/19 05:27:18;;;;;;;21.60;13.17;;;;;;;-4.76;100.00;95243.88;4979803;28;20486;-85
2023/01/19 05:29:43;;;;;;;23.13;12.23;;;;;;;-4.72;100.00;95246.28;4979377;28;20590;-86
2023/01/19 05:32:09;;;;;;;19.43;12.20;;;;;;;-4.65;100.00;95250.94;4978361;28;20028;-85
2023/01/19 05:34:36;;;;;;;19.93;12.13;;;;;;;-4.70;100.00;95259.81;4978163;28;20017;-85
2023/01/19 05:37:02;;;;;;;19.87;10.73;;;;;;;-4.70;100.00;95262.38;4979847;28;20037;-85
2023/01/19 05:39:29;;;;;;;19.50;12.20;;;;;;;-4.65;100.00;95270.66;4973505;28;20948;-85
2023/01/19 05:41:57;;;;;;;20.37;11.73;;;;;;;-4.61;100.00;95272.09;4991228;28;20098;-85
2023/01/19 05:44:23;;;;;;;25.00;12.43;;;;;;;-4.55;100.00;95262.31;4972389;28;20455;-85
2023/01/19 05:46:49;;;;;;;26.47;12.90;;;;;;;-4.50;100.00;95262.84;4976995;28;20474;-85
2023/01/19 05:49:14;;;;;;;24.43;13.73;;;;;;;-4.35;100.00;95270.56;4993721;28;20630;-86
2023/01/19 05:51:44;;;;;;;20.13;13.77;;;;;;;-4.33;100.00;95271.25;4978782;28;20056;-85
2023/01/19 05:54:14;;;;;;;27.70;14.70;;;;;;;-4.21;100.00;95275.66;4981156;28;20048;-85
2023/01/19 05:56:40;;;;;;;24.67;13.53;;;;;;;-4.18;100.00;95266.97;5026318;28;20467;-85
2023/01/19 05:59:06;;;;;;;21.63;13.10;;;;;;;-4.14;100.00;95266.66;5035233;28;20464;-85
2023/01/19 06:01:35;;;;;;;23.87;12.77;;;;;;;-4.08;100.00;95266.31;5053709;28;20467;-86
2023/01/19 06:04:01;;;;;;;23.77;11.97;;;;;;;-4.08;100.00;95268.88;5038600;28;20472;-85
2023/01/19 06:06:27;;;;;;;23.53;13.53;;;;;;;-4.10;100.00;95273.25;5026075;28;20486;-84
2023/01/19 06:08:53;;;;;;;19.13;12.67;;;;;;;-3.98;100.00;95270.88;5027758;28;20043;-85
2023/01/19 06:11:19;;;;;;;23.57;14.10;;;;;;;-3.98;100.00;95271.69;5021096;28;20037;-86
2023/01/19 06:13:46;;;;;;;20.50;13.13;;;;;;;-3.92;100.00;95273.88;5019764;28;21955;-85
2023/01/19 06:16:13;;;;;;;20.43;13.13;;;;;;;-3.91;100.00;95272.13;5019902;28;20502;-85
2023/01/19 06:18:39;;;;;;;23.20;13.57;;;;;;;-3.85;100.00;95271.75;5019412;28;20468;-84
2023/01/19 06:21:11;;;;;;;21.83;13.73;;;;;;;-3.85;100.00;95271.75;5021741;28;20462;-85
2023/01/19 06:23:37;;;;;;;22.00;13.37;;;;;;;-3.86;100.00;95276.06;5039156;28;20456;-85
2023/01/19 06:26:03;;;;;;;24.63;13.67;;;;;;;-3.91;100.00;95270.38;4976644;28;20487;-85
2023/01/19 06:28:29;;;;;;;21.50;12.63;;;;;;;-3.93;100.00;95279.09;4975409;28;21591;-85
2023/01/19 06:30:55;;;;;;;23.53;13.50;;;;;;;-3.94;100.00;95273.16;4974177;28;20121;-85
2023/01/19 06:33:23;;;;;;;18.53;11.93;;;;;;;-3.99;100.00;95279.47;4976702;28;20459;-85
2023/01/19 06:35:50;;;;;;;20.00;12.40;;;;;;;-4.21;100.00;95282.56;4973778;28;20470;-85
2023/01/19 06:38:17;;;;;;;20.30;12.57;;;;;;;-4.27;100.00;95281.16;5038709;28;20495;-86
2023/01/19 06:40:44;;;;;;;25.33;14.50;;;;;;;-4.21;100.00;95285.94;5035475;28;20485;-85
2023/01/19 06:43:10;;;;;;;24.17;15.37;;;;;;;-4.40;100.00;95282.81;5035878;28;20459;-86
2023/01/19 06:45:38;;;;;;;21.20;14.13;;;;;;;-4.47;100.00;95284.94;5034628;28;21009;-85
2023/01/19 06:48:05;;;;;;;23.20;13.30;;;;;;;-4.51;100.00;95286.03;5043425;28;20463;-85
2023/01/19 06:50:30;;;;;;;21.93;13.73;;;;;;;-4.42;100.00;95292.38;5032594;28;20448;-85
2023/01/19 06:52:56;;;;;;;23.13;13.10;;;;;;;-4.50;100.00;95285.09;5026972;28;20475;-85
2023/01/19 06:55:22;;;;;;;15.73;11.03;;;;;;;-4.53;100.00;95295.56;5029993;28;20033;-86
2023/01/19 06:57:56;;;;;;;20.27;12.77;;;;;;;-4.62;100.00;95296.94;5032645;28;20041;-87
2023/01/19 07:00:22;;;;;;;26.47;14.23;;;;;;;-3.96;100.00;95310.09;5034941;28;20190;-84
2023/01/19 07:02:50;;;;;;;24.47;15.63;;;;;;;-3.61;100.00;95305.38;5034025;28;20485;-87
2023/01/19 07:05:55;;;;;;;21.97;14.13;;;;;;;-3.89;100.00;95313.94;5047332;28;20444;-87
2023/01/19 07:09:10;;;;;;;19.73;13.63;;;;;;;-3.42;100.00;95305.03;5051676;28;20436;-87
2023/01/19 07:12:45;;;;;;;26.70;14.50;;;;;;;-2.97;100.00;95308.16;5049489;28;20687;-88
2023/01/19 07:15:27;;;;;;;20.70;13.90;;;;;;;-2.81;100.00;95301.09;5032228;28;20468;-88
2023/01/19 07:18:06;;;;;;;20.30;12.73;;;;;;;-2.87;100.00;95291.19;5010137;28;20476;-87
2023/01/19 07:20:33;;;;;;;17.30;10.67;;;;;;;-2.95;100.00;95291.69;5023597;28;20474;-88
2023/01/19 07:22:59;;;;;;;22.63;11.67;;;;;;;-2.47;100.00;95296.25;5025841;28;21061;-88
2023/01/19 07:25:29;;;;;;;16.67;10.30;;;;;;;-2.31;100.00;95299.47;5050439;28;20486;-88
2023/01/19 07:28:00;;;;;;;16.77;10.37;;;;;;;-2.52;100.00;95300.88;5034784;28;20029;-88
2023/01/19 07:30:44;;;;;;;43.03;20.03;;;;;;;-2.46;100.00;95300.47;5030278;28;20464;-87
2023/01/19 07:33:16;;;;;;;174.07;69.50;;;;;;;-2.39;100.00;95297.38;5035373;28;20572;-87
2023/01/19 07:35:51;;;;;;;66.63;31.53;;;;;;;-3.01;100.00;95306.72;5049311;28;20043;-88
2023/01/19 07:38:18;;;;;;;44.77;20.47;;;;;;;-2.74;100.00;95291.22;5028330;28;20511;-88
2023/01/19 07:40:48;;;;;;;67.27;36.57;;;;;;;-2.43;100.00;95295.94;5029102;28;20440;-87
2023/01/19 07:43:18;;;;;;;44.40;26.83;;;;;;;-2.92;100.00;95296.66;5038712;28;20462;-87
2023/01/19 07:45:57;;;;;;;33.13;19.97;;;;;;;-2.85;100.00;95302.19;5033792;28;20471;-88
2023/01/19 07:48:23;;;;;;;27.90;16.13;;;;;;;-2.92;100.00;95298.38;5031769;28;20471;-88
2023/01/19 07:50:48;;;;;;;88.87;36.97;;;;;;;-2.33;100.00;95303.88;5021791;28;20458;-88
2023/01/19 07:53:18;;;;;;;60.50;27.37;;;;;;;-2.69;100.00;95310.53;5032978;28;20028;-88
2023/01/19 07:55:55;;;;;;;62.23;21.00;;;;;;;-2.43;100.00;95315.72;5034382;28;20032;-85
2023/01/19 07:58:22;;;;;;;36.07;13.77;;;;;;;-1.68;100.00;95308.84;5054673;28;20535;-85
2023/01/19 08:00:47;;;;;;;25.17;12.77;;;;;;;-1.71;100.00;95311.63;5044723;28;20803;-85
2023/01/19 08:03:13;;;;;;;19.73;12.50;;;;;;;-1.30;100.00;95317.38;5049739;28;20494;-85
2023/01/19 08:05:40;;;;;;;22.80;11.33;;;;;;;-1.48;100.00;95311.75;5033372;28;20037;-85
2023/01/19 08:08:06;;;;;;;17.90;10.73;;;;;;;-0.94;100.00;95313.88;5046270;28;20113;-85
2023/01/19 08:10:33;;;;;;;18.90;11.03;;;;;;;-1.06;100.00;95310.44;5028745;28;21062;-85
2023/01/19 08:13:03;;;;;;;20.47;10.77;;;;;;;-0.69;100.00;95318.06;5040796;28;20435;-86
2023/01/19 08:15:28;;;;;;;24.97;10.70;;;;;;;-0.64;100.00;95320.31;5031230;28;21042;-85
2023/01/19 08:18:00;;;;;;;27.93;12.17;;;;;;;-1.78;100.00;95332.75;5033627;28;20471;-85
2023/01/19 08:20:27;;;;;;;23.43;10.87;;;;;;;-1.76;100.00;95329.16;5047109;28;20056;-86
2023/01/19 08:22:58;;;;;;;16.70;9.80;;;;;;;-1.36;100.00;95334.09;5031220;28;20513;-84
2023/01/19 08:25:35;;;;;;;20.03;10.77;;;;;;;-1.56;100.00;95337.25;5050980;28;20432;-85
2023/01/19 08:28:03;;;;;;;14.30;9.27;;;;;;;-0.80;100.00;95325.78;5033039;28;20469;-85
2023/01/19 08:30:29;;;;;;;16.67;9.07;;;;;;;-1.02;100.00;95329.09;5034861;28;20458;-86
2023/01/19 08:33:06;;;;;;;16.97;9.37;;;;;;;-1.38;100.00;95330.78;5032677;28;20472;-85
2023/01/19 08:35:39;;;;;;;16.97;8.50;;;;;;;-1.20;100.00;95328.66;5031217;28;20039;-85
2023/01/19 08:38:06;;;;;;;17.17;7.90;;;;;;;-0.63;100.00;95316.81;5031442;28;20554;-85
2023/01/19 08:40:37;;;;;;;16.00;8.13;;;;;;;0.02;100.00;95323.94;5035279;28;20439;-85
2023/01/19 08:43:08;;;;;;;14.50;8.23;;;;;;;0.86;100.00;95314.75;5029865;28;20834;-85
2023/01/19 08:45:48;;;;;;;25.03;11.37;;;;;;;-0.13;100.00;95302.66;5048856;28;20431;-85
2023/01/19 08:48:16;;;;;;;50.43;13.17;;;;;;;0.76;100.00;95305.25;5028477;28;20462;-86
2023/01/19 08:50:45;;;;;;;20.23;11.50;;;;;;;0.98;100.00;95305.19;5038991;28;20467;-86
2023/01/19 08:53:11;;;;;;;17.47;9.13;;;;;;;0.27;100.00;95309.94;5020507;28;20526;-86
2023/01/19 08:55:38;;;;;;;15.23;9.30;;;;;;;0.46;100.00;95306.72;5027920;28;20463;-85
2023/01/19 08:58:05;;;;;;;16.97;9.27;;;;;;;0.74;100.00;95301.97;5047503;28;20430;-86
2023/01/19 09:05:18;;;;;;;75.37;14.33;;;;;;;0.96;100.00;95307.06;5085347;27;20806;-87
2023/01/19 09:07:50;;;;;;;17.63;7.93;;;;;;;2.17;100.00;95301.41;5089332;28;20486;-87
2023/01/19 09:10:36;;;;;;;15.63;8.37;;;;;;;2.20;100.00;95304.56;5082182;28;20474;-88
2023/01/19 09:13:15;;;;;;;20.00;8.33;;;;;;;2.80;100.00;95299.41;5086907;28;20474;-87
2023/01/19 09:15:57;;;;;;;30.67;10.10;;;;;;;2.49;100.00;95298.66;5088482;28;20476;-87
2023/01/19 09:18:23;;;;;;;38.20;12.20;;;;;;;2.43;100.00;95297.41;5086918;28;20039;-88
2023/01/19 09:20:50;;;;;;;31.03;10.43;;;;;;;2.12;100.00;95304.41;5081233;28;20032;-87
2023/01/19 09:23:19;;;;;;;15.63;8.73;;;;;;;3.94;100.00;95301.22;5088640;28;20039;-88
2023/01/19 09:25:46;;;;;;;18.97;8.93;;;;;;;3.65;100.00;95296.09;5088871;28;20039;-87
2023/01/19 09:28:14;;;;;;;19.10;9.57;;;;;;;4.52;100.00;95296.75;5113781;28;20541;-89
2023/01/19 09:30:42;;;;;;;15.87;8.57;;;;;;;4.16;100.00;95307.06;5087869;28;20477;-88
2023/01/19 09:33:11;;;;;;;11.80;7.13;;;;;;;4.78;100.00;95308.13;5071782;28;20026;-88
2023/01/19 09:35:41;;;;;;;12.73;7.63;;;;;;;3.40;100.00;95317.47;5074084;28;20024;-88
2023/01/19 09:38:09;;;;;;;12.30;6.30;;;;;;;2.91;100.00;95317.44;5074362;28;20040;-88
2023/01/19 09:40:58;;;;;;;13.00;7.37;;;;;;;3.02;100.00;95312.16;5089331;28;20035;-88
2023/01/19 09:43:46;;;;;;;11.30;7.17;;;;;;;2.86;100.00;95316.22;5083564;28;20052;-87
2023/01/19 09:46:37;;;;;;;12.17;7.50;;;;;;;2.93;100.00;95320.75;5090410;28;20040;-88
2023/01/19 09:49:15;;;;;;;19.53;11.57;;;;;;;4.08;100.00;95315.56;5105224;28;20047;-87
2023/01/19 09:51:47;;;;;;;12.63;6.93;;;;;;;3.43;100.00;95317.22;5100277;28;20065;-86
2023/01/19 09:54:27;;;;;;;12.90;6.23;;;;;;;3.25;100.00;95319.66;5070077;28;20036;-86
2023/01/19 09:56:56;;;;;;;12.83;7.07;;;;;;;2.15;100.00;95337.88;5060875;28;20040;-86
2023/01/19 09:59:27;;;;;;;14.00;7.20;;;;;;;2.27;100.00;95338.59;5111711;28;20034;-86
2023/01/19 10:13:45;;;;;;;10.77;6.27;;;;;;;1.35;100.00;95339.28;5066046;27;20731;-81
2023/01/19 10:16:47;;;;;;;10.20;5.83;;;;;;;1.87;100.00;95336.75;5056407;28;20903;-81
2023/01/19 10:19:29;;;;;;;32.47;11.47;;;;;;;3.45;100.00;95333.47;5076003;28;20024;-78
2023/01/19 10:21:59;;;;;;;14.40;6.40;;;;;;;3.90;100.00;95338.09;5047275;28;20071;-78
2023/01/19 10:24:38;;;;;;;13.97;5.80;;;;;;;3.99;100.00;95339.81;5064998;28;20032;-80
2023/01/19 10:27:14;;;;;;;13.53;5.23;;;;;;;3.79;100.00;95331.25;5050154;28;20037;-82
2023/01/19 10:29:40;;;;;;;15.10;6.23;;;;;;;4.68;100.00;95318.59;5068665;28;20058;-81
2023/01/19 10:32:20;;;;;;;10.10;5.93;;;;;;;3.93;100.00;95325.63;5067517;28;20098;-80
2023/01/19 10:34:47;;;;;;;15.23;5.87;;;;;;;3.63;100.00;95323.22;5067915;28;20033;-79
2023/01/19 10:37:26;;;;;;;29.47;19.40;;;;;;;3.91;100.00;95318.91;5054031;28;20028;-78
2023/01/19 10:40:11;;;;;;;24.77;15.30;;;;;;;2.85;100.00;95320.59;5076684;28;20028;-82
2023/01/19 10:42:39;;;;;;;13.07;7.67;;;;;;;2.51;100.00;95317.50;5059674;28;20032;-81
2023/01/19 10:45:20;;;;;;;10.17;5.50;;;;;;;2.77;100.00;95310.88;5077388;28;20036;-80
2023/01/19 10:47:47;;;;;;;16.10;5.50;;;;;;;2.61;100.00;95310.56;5058853;28;20095;-82
2023/01/19 10:50:35;;;;;;;8.47;4.33;;;;;;;2.81;100.00;95306.22;5067433;28;20040;-81
2023/01/19 10:53:06;;;;;;;8.97;4.53;;;;;;;3.28;100.00;95311.59;5064443;28;20086;-81
2023/01/19 10:55:38;;;;;;;9.57;4.20;;;;;;;2.30;100.00;95317.56;5062124;28;20038;-83
2023/01/19 10:58:05;;;;;;;16.23;8.03;;;;;;;2.77;100.00;95316.06;5056434;28;20573;-83
2023/01/19 11:00:35;;;;;;;11.43;5.33;;;;;;;2.98;100.00;95308.16;5079397;28;20095;-83
2023/01/19 11:03:22;;;;;;;9.40;4.87;;;;;;;2.15;100.00;95313.69;5081806;28;20039;-84
2023/01/19 11:05:48;;;;;;;10.33;4.70;;;;;;;1.89;100.00;95317.53;5046812;28;20044;-84
2023/01/19 11:08:29;;;;;;;8.23;4.07;;;;;;;1.14;100.00;95321.13;5087131;28;20036;-85
2023/01/19 11:11:01;;;;;;;7.20;3.47;;;;;;;0.57;100.00;95324.84;5071254;28;20033;-85
2023/01/19 11:13:29;;;;;;;12.60;4.13;;;;;;;1.48;100.00;95318.38;5061303;28;20029;-83
2023/01/19 11:15:58;;;;;;;8.57;4.07;;;;;;;1.56;100.00;95310.78;5054681;28;20110;-84
2023/01/19 11:18:32;;;;;;;19.33;5.70;;;;;;;1.41;100.00;95312.06;5055912;28;20021;-83
2023/01/19 11:21:15;;;;;;;15.00;4.60;;;;;;;0.88;100.00;95307.69;5055666;28;20052;-81
2023/01/19 11:23:49;;;;;;;66.18;9.65;;;;;;;0.89;100.00;95318.88;5049891;28;20115;-81
2023/01/19 11:26:53;;;;;;;33.60;9.27;;;;;;;1.54;100.00;95323.06;5057198;28;20040;-81
2023/01/19 11:29:22;;;;;;;13.65;4.13;;;;;;;1.03;100.00;95313.41;5018894;28;20052;-82
2023/01/19 11:31:49;;;;;;;27.43;6.43;;;;;;;1.15;100.00;95311.59;5041948;28;20056;-81
2023/01/19 11:34:33;;;;;;;26.87;7.23;;;;;;;1.73;100.00;95311.16;5035390;28;20039;-81
2023/01/19 11:37:18;;;;;;;80.90;13.30;;;;;;;1.56;100.00;95313.38;5054133;28;20495;-81
2023/01/19 11:39:50;;;;;;;54.90;9.03;;;;;;;1.44;100.00;95319.56;5063911;28;20033;-81
2023/01/19 11:42:17;;;;;;;185.40;28.03;;;;;;;2.26;100.00;95313.59;5057875;28;20028;-80
2023/01/19 11:45:06;;;;;;;9.23;4.10;;;;;;;1.18;100.00;95307.00;5057822;28;20346;-90
2023/01/19 11:47:41;;;;;;;16.30;5.40;;;;;;;1.52;100.00;95304.22;5058436;28;20055;-81
2023/01/19 11:50:29;;;;;;;11.50;4.70;;;;;;;1.65;100.00;95299.66;5036418;28;20565;-82
2023/01/19 11:53:13;;;;;;;10.70;4.87;;;;;;;2.31;100.00;95298.44;5046581;28;20783;-83
2023/01/19 11:56:06;;;;;;;12.80;5.20;;;;;;;2.05;100.00;95300.69;5040498;28;20037;-82
2023/01/19 11:58:41;;;;;;;9.53;5.40;;;;;;;2.66;100.00;95295.41;5045217;28;20124;-83